In Rescue
 
Open Full Screen Window  High Contrast Mode
Wind Gusting 21 knots
13
November 29, 2022 7:50 AM CST
Present Weather: Light Snow
Weather Information
Wind Direction
  000 °
Wind Speed
  13 kt (15 mph)
Wind Gust
  21 kt (24 mph)
Altimeter
29.66 in
Visibility
1 1/4 SM
Temperature
-04° C
25° F
Dewpoint
-05° C
23° F
Humidity
93%
1hr Rain Fall
00.00 in.
24hr Rain Fall
00.00 in.
Sky Condition
Overcast @ 400 ft
LIFR

METAR KMJQ 291350Z AUTO 00013G21KT 1 1/4SM -SN OVC004 M04/M05 A2966 RMK AO2

FAA Disclaimer: The data displayed is for advisory purposes only and is not to be used for flight planning or operations.